< < Back
Terminal Aerodrome Forecast


Current Version              Previous Versions:   1  2  3  4  5  6  7  8  9  

Terminal Aerodrome Forecast

397
FTUS42 KJAX 210500
TAFJAX
TAF
KJAX 210520Z 2106/2206 00000KT P6SM SCT250
     FM211400 04010KT P6SM SCT250
     FM212300 05007KT P6SM SCT030=

Latest METAR

463
SAUS80 KWBC 220200 CCA
MTRJAX
METAR KJAX 220156Z 04004KT 10SM CLR 11/09 A3035 RMK AO2 SLP278
T01110094


USA.gov is the U.S. government's official web portal to all federal, state and local government web resources and services.